< < Back
Terminal Aerodrome Forecast


Current Version              Previous Versions:   1  2  3  4  5  6  7  8  9  

Terminal Aerodrome Forecast

403
FTUS42 KTAE 240909 AAA
TAFVLD
TAF AMD
KVLD 240909Z 2409/2506 00000KT P6SM SCT250
     FM241100 06003KT 5SM BR SCT005 BKN010
     FM241300 07008KT P6SM SCT040=

Latest METAR

988
SAUS70 KWBC 241300 RRF
MTRVLD
METAR KVLD 241253Z 06004KT 10SM CLR 26/26 A3021 RMK AO2 SLP237
T02610256


USA.gov is the U.S. government's official web portal to all federal, state and local government web resources and services.